Time;durP1;ratioP1;P1;durP2;ratioP2;P2;SDS_P1;SDS_P2;PMS_P1;PMS_P2;Temp;Humidity;BMP_temperature;BMP_pressure;BME280_temperature;BME280_humidity;BME280_pressure;Samples;Min_cycle;Max_cycle;Signal;HPM_P1;HPM_P2
2022/12/14 00:01:08;;;;;;;7.13;5.20;;;15.60;38.40;;;;;;5087084;28;45395;-73
2022/12/14 00:03:35;;;;;;;7.50;5.57;;;15.60;37.80;;;;;;5087453;27;45256;-74
2022/12/14 00:06:11;;;;;;;7.50;5.45;;;15.60;37.70;;;;;;5087540;27;45406;-74
2022/12/14 00:08:38;;;;;;;7.97;5.85;;;15.60;37.70;;;;;;5086484;27;45497;-73
2022/12/14 00:11:05;;;;;;;6.32;5.20;;;15.60;37.70;;;;;;5087158;27;45368;-74
2022/12/14 00:13:32;;;;;;;7.22;5.20;;;15.60;37.70;;;;;;5087410;27;45322;-75
2022/12/14 00:15:59;;;;;;;7.35;5.65;;;15.70;37.70;;;;;;5088141;27;45359;-76
2022/12/14 00:18:26;;;;;;;6.80;5.35;;;15.70;37.60;;;;;;5087102;28;45420;-76
2022/12/14 00:20:53;;;;;;;6.72;5.35;;;15.70;37.50;;;;;;5087457;27;45195;-76
2022/12/14 00:23:21;;;;;;;7.00;5.28;;;15.80;37.60;;;;;;5088139;27;45327;-75
2022/12/14 00:25:48;;;;;;;6.55;5.45;;;15.80;37.50;;;;;;5087633;27;45462;-75
2022/12/14 00:28:15;;;;;;;7.47;5.30;;;15.80;37.50;;;;;;5086115;27;46689;-76
2022/12/14 00:30:42;;;;;;;8.18;5.50;;;15.80;37.50;;;;;;5086467;27;45272;-74
2022/12/14 00:33:09;;;;;;;8.48;5.35;;;15.80;37.50;;;;;;5082987;27;45188;-75
2022/12/14 00:35:36;;;;;;;6.50;4.55;;;15.70;37.40;;;;;;5081276;28;45470;-77
2022/12/14 00:38:02;;;;;;;7.70;5.65;;;15.80;37.50;;;;;;5085786;27;45390;-74
2022/12/14 00:40:31;;;;;;;11.20;5.78;;;15.70;37.50;;;;;;5086390;27;45422;-75
2022/12/14 00:42:57;;;;;;;6.70;4.90;;;15.70;37.50;;;;;;5086915;27;45152;-76
2022/12/14 00:45:24;;;;;;;6.63;5.40;;;15.70;37.60;;;;;;5085683;27;45240;-73
2022/12/14 00:47:51;;;;;;;6.45;5.00;;;15.70;37.60;;;;;;5086120;27;46414;-74
2022/12/14 00:50:18;;;;;;;6.28;5.03;;;15.60;37.70;;;;;;5085797;27;45489;-73
2022/12/14 00:52:45;;;;;;;6.43;4.90;;;15.60;37.70;;;;;;5085714;27;45447;-74
2022/12/14 00:55:11;;;;;;;7.00;5.40;;;15.60;37.70;;;;;;5086368;27;45411;-73
2022/12/14 00:57:40;;;;;;;7.05;5.57;;;15.60;37.70;;;;;;5086243;27;45470;-73
2022/12/14 01:00:08;;;;;;;6.00;5.00;;;15.60;37.70;;;;;;5086024;27;45449;-72
2022/12/14 01:02:35;;;;;;;5.63;4.63;;;15.60;37.70;;;;;;5086499;27;45362;-75
2022/12/14 01:05:02;;;;;;;6.35;4.97;;;15.60;37.70;;;;;;5086618;27;45126;-75
2022/12/14 01:07:28;;;;;;;8.52;4.72;;;15.70;37.80;;;;;;5085684;27;46384;-75
2022/12/14 01:09:55;;;;;;;7.32;5.15;;;15.70;37.80;;;;;;5088764;28;45312;-74
2022/12/14 01:12:22;;;;;;;6.60;5.03;;;15.70;37.90;;;;;;5089896;27;45323;-75
2022/12/14 01:14:51;;;;;;;6.57;4.70;;;15.70;37.90;;;;;;5090109;27;45428;-76
2022/12/14 01:17:18;;;;;;;5.97;4.82;;;15.70;37.90;;;;;;5089755;27;46419;-75
2022/12/14 01:19:45;;;;;;;6.43;5.30;;;15.70;37.90;;;;;;5088853;27;45193;-75
2022/12/14 01:22:11;;;;;;;5.78;4.95;;;15.70;37.90;;;;;;5089577;27;45324;-75
2022/12/14 01:24:38;;;;;;;6.38;4.80;;;15.70;37.90;;;;;;5089914;27;45457;-75
2022/12/14 01:27:05;;;;;;;6.22;4.90;;;15.70;37.90;;;;;;5089508;27;46676;-75
2022/12/14 01:29:32;;;;;;;6.68;4.65;;;15.70;37.90;;;;;;5090591;27;45328;-76
2022/12/14 01:32:00;;;;;;;6.57;5.15;;;15.70;37.80;;;;;;5090888;27;45261;-74
2022/12/14 01:34:27;;;;;;;6.32;5.03;;;15.70;37.80;;;;;;5091331;27;45438;-75
2022/12/14 01:36:54;;;;;;;6.65;4.57;;;15.70;37.80;;;;;;5089952;27;45291;-75
2022/12/14 01:39:21;;;;;;;7.55;5.57;;;15.70;37.80;;;;;;5090667;27;45208;-75
2022/12/14 01:41:51;;;;;;;7.57;5.10;;;15.70;38.40;;;;;;5090694;27;45186;-75
2022/12/14 01:44:54;;;;;;;9.55;5.40;;;15.70;37.80;;;;;;5090151;27;45284;-75
2022/12/14 01:47:33;;;;;;;6.40;4.72;;;15.70;37.70;;;;;;5089635;27;45284;-75
2022/12/14 01:50:03;;;;;;;7.53;4.78;;;15.70;37.70;;;;;;5089839;27;45356;-73
2022/12/14 01:52:36;;;;;;;7.57;5.10;;;15.70;37.70;;;;;;5091010;27;45217;-75
2022/12/14 01:55:05;;;;;;;6.25;5.13;;;15.80;37.70;;;;;;5090225;27;45192;-74
2022/12/14 01:57:33;;;;;;;5.60;4.63;;;15.80;38.30;;;;;;5089162;27;47484;-74
2022/12/14 02:00:00;;;;;;;6.75;5.40;;;15.80;37.70;;;;;;5088978;27;45437;-74
2022/12/14 02:02:28;;;;;;;6.65;5.00;;;15.80;37.70;;;;;;5089192;27;45193;-75
2022/12/14 02:04:57;;;;;;;6.55;4.65;;;15.80;38.30;;;;;;5089291;27;45225;-75
2022/12/14 02:07:24;;;;;;;6.38;5.03;;;15.80;37.70;;;;;;5088808;27;45308;-75
2022/12/14 02:09:51;;;;;;;7.03;5.10;;;15.70;37.70;;;;;;5088727;27;45185;-75
2022/12/14 02:12:19;;;;;;;6.57;5.00;;;15.70;37.80;;;;;;5089068;27;45276;-74
2022/12/14 02:14:46;;;;;;;6.47;5.22;;;15.70;37.80;;;;;;5089147;27;45282;-74
2022/12/14 02:17:13;;;;;;;6.85;5.00;;;15.60;37.80;;;;;;5088839;27;45445;-74
2022/12/14 02:19:42;;;;;;;8.93;5.10;;;15.60;37.80;;;;;;5088638;27;45208;-74
2022/12/14 02:22:21;;;;;;;6.85;4.40;;;15.60;37.90;;;;;;5087805;27;45211;-72
2022/12/14 02:25:06;;;;;;;6.35;4.72;;;15.50;38.00;;;;;;5088621;27;45258;-73
2022/12/14 02:27:48;;;;;;;6.95;4.65;;;15.50;38.10;;;;;;5088526;27;46315;-74
2022/12/14 02:30:16;;;;;;;5.28;4.63;;;15.50;38.10;;;;;;5088679;27;45188;-75
2022/12/14 02:32:58;;;;;;;6.57;4.97;;;15.50;38.10;;;;;;5088589;27;45505;-74
2022/12/14 02:35:31;;;;;;;6.25;4.72;;;15.50;38.00;;;;;;5089012;27;45276;-74
2022/12/14 02:38:02;;;;;;;5.72;4.63;;;15.60;38.00;;;;;;5088288;27;45299;-75
2022/12/14 02:40:32;;;;;;;6.85;4.68;;;15.60;37.90;;;;;;5088486;27;45231;-74
2022/12/14 02:43:04;;;;;;;5.63;4.57;;;15.60;37.90;;;;;;5088002;27;45142;-75
2022/12/14 02:45:37;;;;;;;6.32;4.22;;;15.70;37.90;;;;;;5087872;27;45442;-75
2022/12/14 02:48:06;;;;;;;6.03;4.60;;;15.70;37.80;;;;;;5087612;27;47540;-75
2022/12/14 02:50:36;;;;;;;6.20;4.47;;;15.70;37.80;;;;;;5072169;27;45262;-75
2022/12/14 02:53:05;;;;;;;8.05;5.15;;;15.70;37.70;;;;;;5067569;28;45248;-75
2022/12/14 02:55:34;;;;;;;5.03;4.15;;;15.70;37.70;;;;;;5068230;28;45188;-76
2022/12/14 02:58:02;;;;;;;6.70;4.63;;;15.80;37.70;;;;;;5067674;28;45354;-75
2022/12/14 03:00:29;;;;;;;7.05;5.03;;;15.70;37.60;;;;;;5067755;28;45308;-75
2022/12/14 03:02:57;;;;;;;5.65;4.68;;;15.70;37.60;;;;;;5068020;28;45267;-75
2022/12/14 03:05:24;;;;;;;6.15;4.90;;;15.70;37.70;;;;;;5068029;28;45261;-75
2022/12/14 03:07:52;;;;;;;5.63;5.07;;;15.70;37.70;;;;;;5067484;28;45474;-75
2022/12/14 03:10:29;;;;;;;5.40;4.53;;;15.70;37.80;;;;;;5067535;28;45407;-75
2022/12/14 03:12:57;;;;;;;5.30;4.68;;;15.70;37.70;;;;;;5067800;28;45277;-74
2022/12/14 03:15:24;;;;;;;6.03;4.70;;;15.70;37.80;;;;;;5068326;28;45458;-74
2022/12/14 03:17:53;;;;;;;5.07;4.38;;;15.60;37.80;;;;;;5067326;28;45346;-74
2022/12/14 03:20:22;;;;;;;5.95;5.03;;;15.60;37.90;;;;;;5067388;28;45299;-74
2022/12/14 03:22:51;;;;;;;7.00;4.90;;;15.60;37.90;;;;;;5067442;28;45188;-75
2022/12/14 03:25:20;;;;;;;6.10;4.60;;;15.60;37.90;;;;;;5067689;28;45335;-74
2022/12/14 03:27:50;;;;;;;7.25;4.63;;;15.60;37.90;;;;;;5067378;28;45667;-75
2022/12/14 03:30:17;;;;;;;5.68;4.40;;;15.60;37.90;;;;;;5067235;28;45293;-74
2022/12/14 03:32:46;;;;;;;5.40;4.63;;;15.60;37.90;;;;;;5066262;28;45296;-75
2022/12/14 03:35:15;;;;;;;5.43;4.28;;;15.70;37.90;;;;;;5067474;28;45175;-75
2022/12/14 03:37:46;;;;;;;7.15;4.50;;;15.70;37.90;;;;;;5067239;28;46380;-75
2022/12/14 03:40:13;;;;;;;5.35;4.72;;;15.70;37.90;;;;;;5067243;28;45209;-73
2022/12/14 03:42:44;;;;;;;6.28;5.00;;;15.70;38.40;;;;;;5066445;28;45185;-75
2022/12/14 03:45:14;;;;;;;5.97;4.47;;;15.70;37.80;;;;;;5067238;28;45396;-74
2022/12/14 03:47:51;;;;;;;5.45;4.60;;;15.70;37.80;;;;;;5080932;28;46421;-75
2022/12/14 03:50:19;;;;;;;6.13;4.13;;;15.70;37.80;;;;;;5073228;27;45249;-75
2022/12/14 03:52:52;;;;;;;5.32;4.55;;;15.70;37.70;;;;;;5066997;28;45239;-75
2022/12/14 03:55:23;;;;;;;6.45;5.07;;;15.70;37.70;;;;;;5067328;28;45389;-75
2022/12/14 03:58:00;;;;;;;6.47;4.88;;;15.70;37.70;;;;;;5066644;28;46478;-75
2022/12/14 04:00:27;;;;;;;6.70;4.97;;;15.70;37.70;;;;;;5066767;28;45323;-75
2022/12/14 04:02:59;;;;;;;6.53;4.80;;;15.70;37.80;;;;;;5066859;28;45453;-75
2022/12/14 04:05:30;;;;;;;5.70;4.65;;;15.70;38.50;;;;;;5067406;28;45259;-73
2022/12/14 04:08:02;;;;;;;6.75;4.88;;;15.60;37.80;;;;;;5066643;28;46607;-73
2022/12/14 04:18:58;;;;;;;6.03;4.40;;;15.50;38.00;;;;;;5063795;28;45179;-75
2022/12/14 04:21:29;;;;;;;6.47;4.22;;;15.50;38.60;;;;;;5066722;28;45184;-75
2022/12/14 04:26:45;;;;;;;5.32;4.35;;;15.60;38.00;;;;;;5064199;28;45293;-75
2022/12/14 04:31:58;;;;;;;6.97;4.35;;;15.60;37.90;;;;;;5063657;28;44697;-74
2022/12/14 04:34:26;;;;;;;4.55;3.72;;;15.60;37.80;;;;;;5066579;28;45291;-75
2022/12/14 04:36:55;;;;;;;6.32;4.43;;;15.70;37.80;;;;;;5066813;28;45276;-74
2022/12/14 04:39:27;;;;;;;5.82;4.10;;;15.70;37.80;;;;;;5066188;28;46685;-74
2022/12/14 04:41:55;;;;;;;6.60;3.95;;;15.70;37.70;;;;;;5066565;28;45192;-74
2022/12/14 04:44:23;;;;;;;5.10;4.60;;;15.80;37.70;;;;;;5068181;28;45525;-74
2022/12/14 04:46:50;;;;;;;4.93;3.83;;;15.80;37.70;;;;;;5070152;28;45331;-75
2022/12/14 04:49:18;;;;;;;4.53;3.80;;;15.80;37.70;;;;;;5075058;28;46566;-74
2022/12/14 04:51:48;;;;;;;4.85;4.28;;;15.80;37.70;;;;;;5090368;27;45284;-75
2022/12/14 04:54:18;;;;;;;5.65;4.28;;;15.80;37.70;;;;;;5090063;27;45398;-74
2022/12/14 04:56:47;;;;;;;5.63;4.30;;;15.80;37.70;;;;;;5090387;27;45173;-74
2022/12/14 04:59:14;;;;;;;7.10;4.10;;;15.80;37.70;;;;;;5089788;27;47929;-74
2022/12/14 05:01:47;;;;;;;6.60;4.65;;;15.80;37.80;;;;;;5089964;27;45261;-74
2022/12/14 05:04:16;;;;;;;5.25;4.57;;;15.80;37.80;;;;;;5090153;27;45354;-74
2022/12/14 05:06:46;;;;;;;5.35;4.15;;;15.70;37.80;;;;;;5090174;27;45335;-75
2022/12/14 05:09:17;;;;;;;4.75;4.07;;;15.70;37.80;;;;;;5089775;27;45394;-74
2022/12/14 05:11:47;;;;;;;6.05;4.25;;;15.70;37.90;;;;;;5089838;27;45180;-75
2022/12/14 05:14:17;;;;;;;5.57;4.32;;;15.60;37.90;;;;;;5090037;27;45330;-74
2022/12/14 05:16:44;;;;;;;5.85;4.53;;;15.60;38.00;;;;;;5090085;27;45374;-74
2022/12/14 05:19:11;;;;;;;5.80;4.30;;;15.50;38.10;;;;;;5089434;27;45259;-75
2022/12/14 05:21:50;;;;;;;5.00;4.18;;;15.50;38.10;;;;;;5090012;27;45415;-75
2022/12/14 05:24:17;;;;;;;5.40;3.92;;;15.50;38.10;;;;;;5089777;27;45339;-74
2022/12/14 05:26:44;;;;;;;5.18;4.45;;;15.50;38.10;;;;;;5089301;27;45481;-75
2022/12/14 05:29:13;;;;;;;5.60;4.40;;;15.50;38.10;;;;;;5089270;27;45358;-75
2022/12/14 05:31:40;;;;;;;5.53;4.45;;;15.60;38.10;;;;;;5089857;27;45352;-75
2022/12/14 05:34:06;;;;;;;5.38;4.25;;;15.60;38.00;;;;;;5089810;27;45316;-75
2022/12/14 05:36:34;;;;;;;5.93;4.28;;;15.60;38.00;;;;;;5089849;27;45198;-75
2022/12/14 05:39:01;;;;;;;4.75;4.30;;;15.70;38.00;;;;;;5089314;27;45556;-75
2022/12/14 05:41:28;;;;;;;6.65;4.65;;;15.70;37.90;;;;;;5089313;27;45356;-75
2022/12/14 05:43:55;;;;;;;4.90;3.92;;;15.80;37.80;;;;;;5089408;27;45272;-75
2022/12/14 05:46:23;;;;;;;5.85;4.20;;;15.80;37.80;;;;;;5086812;27;45358;-75
2022/12/14 05:48:50;;;;;;;4.97;4.05;;;15.80;37.70;;;;;;5068834;28;46772;-75
2022/12/14 05:51:17;;;;;;;5.45;4.30;;;15.80;37.70;;;;;;5069010;28;45192;-75
2022/12/14 05:53:44;;;;;;;5.45;4.20;;;15.80;37.70;;;;;;5068663;28;45518;-75
2022/12/14 05:56:11;;;;;;;5.68;4.10;;;15.80;38.30;;;;;;5068119;28;45491;-75
2022/12/14 05:58:38;;;;;;;5.25;4.13;;;15.80;37.70;;;;;;5068795;28;46844;-74
2022/12/14 06:01:06;;;;;;;5.70;4.13;;;15.70;37.70;;;;;;5068943;28;45214;-75
2022/12/14 06:03:34;;;;;;;5.47;4.30;;;15.70;37.80;;;;;;5069171;28;45351;-74
2022/12/14 06:06:02;;;;;;;5.28;4.43;;;15.70;37.80;;;;;;5068977;28;45330;-75
2022/12/14 06:08:31;;;;;;;6.45;4.75;;;15.70;37.90;;;;;;5068671;28;45435;-75
2022/12/14 06:11:02;;;;;;;4.97;4.32;;;15.70;37.90;;;;;;5068178;28;45415;-75
2022/12/14 06:13:29;;;;;;;5.57;4.70;;;15.60;37.90;;;;;;5067952;28;45215;-74
2022/12/14 06:15:56;;;;;;;6.05;4.38;;;15.60;37.90;;;;;;5069102;28;45198;-74
2022/12/14 06:18:23;;;;;;;5.95;4.43;;;15.60;38.00;;;;;;5068468;28;45340;-75
2022/12/14 06:20:51;;;;;;;5.93;4.50;;;15.60;38.20;;;;;;5068357;28;45309;-74
2022/12/14 06:23:18;;;;;;;4.93;3.78;;;15.50;38.10;;;;;;5068430;28;45339;-74
2022/12/14 06:25:45;;;;;;;5.65;4.70;;;15.50;38.20;;;;;;5068833;28;45244;-75
2022/12/14 06:28:11;;;;;;;5.18;4.43;;;15.50;38.20;;;;;;5068115;28;46421;-74
2022/12/14 06:30:38;;;;;;;5.18;4.28;;;15.50;38.20;;;;;;5068519;28;45411;-74
2022/12/14 06:33:05;;;;;;;6.68;4.50;;;15.50;38.20;;;;;;5068265;28;45312;-74
2022/12/14 06:35:32;;;;;;;6.03;4.55;;;15.60;38.20;;;;;;5068541;28;45296;-75
2022/12/14 06:38:00;;;;;;;6.22;4.13;;;15.60;38.20;;;;;;5067923;28;45427;-74
2022/12/14 06:40:27;;;;;;;4.45;4.05;;;15.60;38.20;;;;;;5068207;28;45369;-75
2022/12/14 06:42:54;;;;;;;4.97;3.85;;;15.60;38.20;;;;;;5068189;28;45379;-75
2022/12/14 06:45:21;;;;;;;5.10;4.05;;;15.60;38.10;;;;;;5068256;28;45316;-74
2022/12/14 06:47:49;;;;;;;5.65;3.83;;;15.70;38.10;;;;;;5082689;28;45456;-75
2022/12/14 06:50:16;;;;;;;5.28;4.63;;;15.70;38.70;;;;;;5074788;27;45196;-74
2022/12/14 06:52:42;;;;;;;4.65;3.97;;;15.70;38.00;;;;;;5067994;28;45475;-74
2022/12/14 06:55:11;;;;;;;7.45;4.70;;;15.70;38.00;;;;;;5067610;28;45432;-75
2022/12/14 06:57:37;;;;;;;4.40;3.97;;;15.70;38.00;;;;;;5067338;28;45509;-75
2022/12/14 07:00:05;;;;;;;6.45;4.78;;;15.70;37.90;;;;;;5067869;28;45257;-75
2022/12/14 07:02:32;;;;;;;5.20;4.60;;;15.80;37.90;;;;;;5067987;28;45265;-75
2022/12/14 07:04:59;;;;;;;5.18;4.00;;;15.80;37.90;;;;;;5068111;28;45486;-75
2022/12/14 07:07:26;;;;;;;6.03;4.60;;;15.70;37.90;;;;;;5067680;28;46357;-75
2022/12/14 07:09:53;;;;;;;5.65;4.43;;;15.70;37.90;;;;;;5067896;28;45332;-75
2022/12/14 07:12:21;;;;;;;6.75;4.13;;;15.70;38.00;;;;;;5068106;28;45189;-75
2022/12/14 07:14:48;;;;;;;5.35;4.20;;;15.60;38.00;;;;;;5068042;28;45318;-75
2022/12/14 07:17:15;;;;;;;4.93;4.35;;;15.60;38.00;;;;;;5067464;28;46503;-75
2022/12/14 07:19:43;;;;;;;5.68;4.32;;;15.60;38.10;;;;;;5067280;28;45328;-75
2022/12/14 07:22:10;;;;;;;5.35;4.40;;;15.60;38.20;;;;;;5067672;28;45233;-75
2022/12/14 07:24:37;;;;;;;4.60;4.07;;;15.50;38.20;;;;;;5067756;28;45177;-76
2022/12/14 07:27:04;;;;;;;5.85;4.50;;;15.50;38.20;;;;;;5067217;28;45745;-75
2022/12/14 07:29:32;;;;;;;4.50;3.78;;;15.50;38.20;;;;;;5067335;28;45422;-75
2022/12/14 07:31:59;;;;;;;5.78;4.15;;;15.60;38.30;;;;;;5067485;28;45272;-75
2022/12/14 07:34:26;;;;;;;6.18;4.30;;;15.60;38.20;;;;;;5067585;28;45451;-74
2022/12/14 07:36:53;;;;;;;5.13;4.10;;;15.60;38.20;;;;;;5067248;28;45692;-74
2022/12/14 07:39:20;;;;;;;5.53;4.13;;;15.60;38.10;;;;;;5066356;28;45303;-74
2022/12/14 07:41:49;;;;;;;3.90;3.35;;;15.70;38.10;;;;;;5067167;28;45244;-74
2022/12/14 07:44:16;;;;;;;6.38;4.30;;;15.70;38.10;;;;;;5067763;28;45459;-74
2022/12/14 07:46:44;;;;;;;4.65;3.80;;;15.70;38.00;;;;;;5072503;28;45490;-74
2022/12/14 07:49:12;;;;;;;6.18;4.13;;;15.70;38.00;;;;;;5082635;27;45446;-74
2022/12/14 07:51:40;;;;;;;4.07;3.70;;;15.80;38.10;;;;;;5067111;28;45296;-73
2022/12/14 07:54:07;;;;;;;5.28;4.45;;;15.70;38.00;;;;;;5067063;28;45198;-74
2022/12/14 07:56:34;;;;;;;5.07;3.70;;;15.70;38.00;;;;;;5066997;28;47345;-75
2022/12/14 07:59:02;;;;;;;6.13;4.30;;;15.70;38.00;;;;;;5066767;28;45272;-74
2022/12/14 08:01:30;;;;;;;5.75;4.75;;;15.70;38.00;;;;;;5066931;28;45210;-75
2022/12/14 08:04:00;;;;;;;4.93;4.03;;;15.70;38.00;;;;;;5067177;28;45269;-74
2022/12/14 08:06:28;;;;;;;4.55;3.70;;;15.70;38.10;;;;;;5066649;28;45380;-74
2022/12/14 08:08:56;;;;;;;5.95;3.97;;;15.60;38.10;;;;;;5066696;28;45311;-74
2022/12/14 08:11:23;;;;;;;4.65;4.00;;;15.60;38.20;;;;;;5066994;28;45229;-74
2022/12/14 08:13:53;;;;;;;5.10;3.97;;;15.60;38.30;;;;;;5067041;28;45453;-75
2022/12/14 08:16:20;;;;;;;5.63;4.40;;;15.50;38.30;;;;;;5066637;28;46630;-74
2022/12/14 08:18:47;;;;;;;5.05;4.20;;;15.50;38.40;;;;;;5066011;28;45181;-74
2022/12/14 08:21:16;;;;;;;5.78;4.35;;;15.50;38.40;;;;;;5066874;28;45302;-75
2022/12/14 08:23:43;;;;;;;6.65;4.32;;;15.50;38.40;;;;;;5066977;28;45398;-75
2022/12/14 08:26:10;;;;;;;5.03;4.30;;;15.60;38.40;;;;;;5065943;28;46700;-74
2022/12/14 08:28:37;;;;;;;5.32;4.07;;;15.60;38.90;;;;;;5066002;28;45320;-74
2022/12/14 08:31:04;;;;;;;6.55;4.13;;;15.60;38.30;;;;;;5066880;28;45312;-75
2022/12/14 08:33:32;;;;;;;4.22;3.55;;;15.70;38.20;;;;;;5066543;28;45425;-75
2022/12/14 08:36:05;;;;;;;5.60;4.40;;;15.70;38.10;;;;;;5066697;28;46547;-75
2022/12/14 08:38:34;;;;;;;4.30;3.90;;;15.70;38.10;;;;;;5066530;28;45275;-75
2022/12/14 08:41:02;;;;;;;5.18;3.95;;;15.80;38.00;;;;;;5066624;28;45238;-75
2022/12/14 08:43:29;;;;;;;5.47;3.53;;;15.80;38.00;;;;;;5066646;28;45448;-75
2022/12/14 08:45:56;;;;;;;4.22;3.80;;;15.80;37.90;;;;;;5066415;28;46621;-75
2022/12/14 08:48:23;;;;;;;4.72;3.83;;;15.90;37.90;;;;;;5086044;28;45426;-75
2022/12/14 08:50:50;;;;;;;6.22;3.97;;;15.90;37.90;;;;;;5068533;27;45184;-74
2022/12/14 08:53:17;;;;;;;5.35;3.63;;;15.90;38.00;;;;;;5066229;28;45271;-75
2022/12/14 08:55:45;;;;;;;4.65;3.78;;;15.80;38.50;;;;;;5066036;28;45375;-75
2022/12/14 08:58:12;;;;;;;3.95;3.55;;;15.80;38.00;;;;;;5065964;28;45256;-75
2022/12/14 09:00:39;;;;;;;4.28;3.70;;;15.80;37.90;;;;;;5066317;28;45280;-75
2022/12/14 09:03:06;;;;;;;4.60;3.95;;;15.80;38.00;;;;;;5066179;28;45403;-75
2022/12/14 09:05:34;;;;;;;4.18;3.05;;;15.80;38.10;;;;;;5066271;28;47556;-75
2022/12/14 09:08:01;;;;;;;4.53;3.88;;;15.80;38.10;;;;;;5065975;28;45340;-74
2022/12/14 09:10:28;;;;;;;3.88;3.47;;;15.80;38.10;;;;;;5066211;28;45137;-75
2022/12/14 09:12:56;;;;;;;3.90;3.60;;;15.70;38.20;;;;;;5065582;28;45191;-75
2022/12/14 09:15:23;;;;;;;4.68;3.40;;;15.70;38.20;;;;;;5072626;27;45382;-75
2022/12/14 09:17:50;;;;;;;7.07;3.90;;;15.70;38.30;;;;;;5083044;27;45385;-75
2022/12/14 09:20:17;;;;;;;4.80;3.95;;;15.60;38.50;;;;;;5086820;27;45299;-75
2022/12/14 09:22:44;;;;;;;3.90;3.33;;;15.60;38.50;;;;;;5098336;27;45486;-75
2022/12/14 09:25:11;;;;;;;3.75;3.38;;;15.60;38.50;;;;;;5085217;27;45480;-75
2022/12/14 09:27:38;;;;;;;5.20;3.47;;;15.60;38.50;;;;;;5085932;27;45280;-75
2022/12/14 09:30:07;;;;;;;5.05;3.58;;;15.60;38.50;;;;;;5086079;27;45445;-75
2022/12/14 09:32:34;;;;;;;3.65;3.30;;;15.60;38.50;;;;;;5091495;27;45533;-75
2022/12/14 09:35:01;;;;;;;4.20;3.30;;;15.70;38.50;;;;;;5109597;27;46695;-74
2022/12/14 09:37:28;;;;;;;3.85;3.00;;;15.70;38.40;;;;;;5095178;27;45157;-75
2022/12/14 09:39:55;;;;;;;4.38;3.72;;;15.70;38.40;;;;;;5089244;27;45394;-75
2022/12/14 09:42:37;;;;;;;4.43;3.78;;;15.80;38.40;;;;;;5089354;27;45319;-74
2022/12/14 09:45:10;;;;;;;3.90;3.50;;;15.80;38.40;;;;;;5088983;27;47452;-74
2022/12/14 09:47:41;;;;;;;3.83;3.20;;;15.90;38.40;;;;;;5089047;27;45405;-75
2022/12/14 09:50:12;;;;;;;3.47;3.17;;;15.90;38.30;;;;;;5088768;27;45311;-75
2022/12/14 09:52:41;;;;;;;3.45;3.00;;;15.90;38.30;;;;;;5089146;27;45228;-75
2022/12/14 09:55:19;;;;;;;3.40;3.10;;;15.90;38.40;;;;;;5087818;27;46541;-75
2022/12/14 09:57:45;;;;;;;3.92;3.17;;;15.90;38.30;;;;;;5088930;28;45417;-76
2022/12/14 10:00:17;;;;;;;3.60;3.03;;;15.90;38.30;;;;;;5089010;27;45353;-75
2022/12/14 10:02:51;;;;;;;3.50;3.20;;;15.90;38.30;;;;;;5089429;27;45620;-75
2022/12/14 10:05:44;;;;;;;3.30;3.00;;;15.90;38.30;;;;;;5088442;27;46974;-75
2022/12/14 10:08:15;;;;;;;3.55;2.83;;;15.80;38.40;;;;;;5071873;28;45308;-76
2022/12/14 10:10:45;;;;;;;3.53;3.10;;;15.80;38.40;;;;;;5088651;27;45333;-75
2022/12/14 10:13:17;;;;;;;3.40;3.05;;;15.80;38.50;;;;;;5086913;27;45341;-75
2022/12/14 10:15:50;;;;;;;4.05;3.55;;;15.70;38.60;;;;;;5088524;27;46378;-75
2022/12/14 10:18:24;;;;;;;3.33;3.03;;;15.70;39.20;;;;;;5072565;28;45473;-76
2022/12/14 10:20:53;;;;;;;3.53;3.22;;;15.70;38.70;;;;;;5088779;27;45272;-75
2022/12/14 10:23:22;;;;;;;3.22;2.90;;;15.60;38.80;;;;;;5088912;27;45497;-76
2022/12/14 10:25:50;;;;;;;3.78;3.20;;;15.60;38.80;;;;;;5086436;27;45728;-75
2022/12/14 10:28:18;;;;;;;4.03;3.30;;;15.60;38.70;;;;;;5087811;27;45327;-75
2022/12/14 10:30:46;;;;;;;3.40;3.10;;;15.60;38.80;;;;;;5086106;27;45661;-75
2022/12/14 10:33:23;;;;;;;3.67;3.03;;;15.70;38.80;;;;;;5080360;28;45503;-75
2022/12/14 10:35:51;;;;;;;3.95;3.20;;;15.70;39.40;;;;;;5088186;27;46824;-75
2022/12/14 10:38:21;;;;;;;3.67;3.13;;;15.70;38.80;;;;;;5088253;27;45196;-74
2022/12/14 10:40:49;;;;;;;5.03;3.60;;;15.70;38.70;;;;;;5088411;27;45384;-75
2022/12/14 10:43:34;;;;;;;4.80;3.13;;;15.80;39.30;;;;;;5088002;27;45253;-75
2022/12/14 10:46:06;;;;;;;4.05;2.85;;;15.80;38.60;;;;;;5086015;27;45284;-75
2022/12/14 10:48:38;;;;;;;3.67;3.05;;;15.80;38.60;;;;;;5074364;28;45371;-75
2022/12/14 10:51:07;;;;;;;3.00;2.58;;;15.90;38.60;;;;;;5078937;28;45430;-75
2022/12/14 10:53:38;;;;;;;4.15;3.30;;;15.90;38.60;;;;;;5087967;27;45389;-75
2022/12/14 10:56:07;;;;;;;3.25;2.95;;;15.90;38.50;;;;;;5087807;27;46388;-75
2022/12/14 10:58:34;;;;;;;3.20;2.90;;;15.90;38.60;;;;;;5087918;27;45377;-75
2022/12/14 11:01:03;;;;;;;2.70;2.42;;;15.90;38.50;;;;;;5088127;27;45253;-75
2022/12/14 11:03:29;;;;;;;3.25;2.75;;;15.90;38.50;;;;;;5088164;27;45169;-75
2022/12/14 11:05:58;;;;;;;3.47;3.17;;;15.90;38.60;;;;;;5087714;27;45358;-75
2022/12/14 11:08:38;;;;;;;3.47;3.08;;;15.90;38.60;;;;;;5087507;27;45383;-75
2022/12/14 11:11:07;;;;;;;3.17;2.83;;;15.80;38.60;;;;;;5095120;27;45352;-75
2022/12/14 11:13:35;;;;;;;3.28;2.97;;;15.80;38.70;;;;;;5087020;28;45255;-75
2022/12/14 11:16:19;;;;;;;3.08;2.88;;;15.80;38.70;;;;;;5087523;27;45745;-75
2022/12/14 11:18:47;;;;;;;4.40;3.20;;;15.70;38.80;;;;;;5087773;27;45339;-75
2022/12/14 11:21:15;;;;;;;3.22;2.92;;;15.70;38.90;;;;;;5087683;27;45260;-75
2022/12/14 11:23:43;;;;;;;3.30;3.00;;;15.60;38.90;;;;;;5087535;27;45631;-75
2022/12/14 11:26:12;;;;;;;3.42;3.13;;;15.60;39.00;;;;;;5087315;27;45252;-76
2022/12/14 11:28:40;;;;;;;3.92;3.20;;;15.60;39.10;;;;;;5087527;27;45272;-75
2022/12/14 11:31:10;;;;;;;4.25;3.22;;;15.60;39.10;;;;;;5087418;28;45744;-75
2022/12/14 11:33:39;;;;;;;3.78;3.15;;;15.60;39.00;;;;;;5087708;27;45323;-75
2022/12/14 11:36:17;;;;;;;4.35;3.20;;;15.70;39.00;;;;;;5086341;27;46712;-75
2022/12/14 11:38:44;;;;;;;3.60;3.20;;;15.70;38.90;;;;;;5086491;27;45327;-75
2022/12/14 11:41:11;;;;;;;4.30;3.55;;;15.70;38.90;;;;;;5086873;27;45203;-75
2022/12/14 11:43:38;;;;;;;3.63;3.10;;;15.80;38.80;;;;;;5086519;27;45548;-74
2022/12/14 11:46:05;;;;;;;3.63;3.08;;;15.80;38.70;;;;;;5086796;27;45267;-75
2022/12/14 11:48:37;;;;;;;4.53;3.00;;;15.90;38.70;;;;;;5087222;27;45417;-75
2022/12/14 11:51:11;;;;;;;3.38;3.03;;;15.90;38.70;;;;;;5087184;27;45272;-75
2022/12/14 11:53:38;;;;;;;3.83;3.03;;;15.90;38.60;;;;;;5085912;27;45520;-76
2022/12/14 11:56:06;;;;;;;3.60;3.00;;;15.90;38.60;;;;;;5086756;27;46857;-75
2022/12/14 11:58:34;;;;;;;3.53;3.00;;;15.90;38.60;;;;;;5087142;27;45458;-76
2022/12/14 12:01:05;;;;;;;3.58;3.08;;;15.90;38.60;;;;;;5088429;27;45307;-75
2022/12/14 12:03:35;;;;;;;5.78;3.55;;;15.90;38.60;;;;;;5080083;27;45503;-75
2022/12/14 12:06:04;;;;;;;3.90;3.50;;;15.90;38.70;;;;;;5066772;28;46616;-75
2022/12/14 12:08:32;;;;;;;5.53;3.38;;;15.90;38.70;;;;;;5066808;28;45463;-74
2022/12/14 12:10:59;;;;;;;4.25;3.83;;;15.90;38.80;;;;;;5066789;28;45362;-74
2022/12/14 12:13:28;;;;;;;3.83;3.35;;;15.90;38.80;;;;;;5067011;28;45500;-75
2022/12/14 12:15:56;;;;;;;4.10;3.38;;;15.80;38.80;;;;;;5066893;28;46366;-75
2022/12/14 12:18:26;;;;;;;4.10;3.47;;;15.80;38.90;;;;;;5066549;28;45284;-75
2022/12/14 12:20:55;;;;;;;4.72;3.05;;;15.80;39.10;;;;;;5066943;28;45184;-74
2022/12/14 12:23:24;;;;;;;4.70;3.72;;;15.70;39.10;;;;;;5066943;28;45304;-75
2022/12/14 12:25:53;;;;;;;5.07;3.55;;;15.70;39.20;;;;;;5066620;28;45480;-75
2022/12/14 12:28:22;;;;;;;7.15;3.70;;;15.60;39.20;;;;;;5066620;28;45142;-75
2022/12/14 12:30:50;;;;;;;4.25;3.30;;;15.60;39.30;;;;;;5066695;28;45249;-76
2022/12/14 12:33:22;;;;;;;4.60;3.53;;;15.60;39.90;;;;;;5066796;28;45185;-74
2022/12/14 12:35:50;;;;;;;4.68;3.50;;;15.60;39.30;;;;;;5066369;28;47058;-73
2022/12/14 12:38:22;;;;;;;3.38;3.08;;;15.60;39.90;;;;;;5065812;28;45318;-75
2022/12/14 12:40:54;;;;;;;3.75;3.22;;;15.70;39.20;;;;;;5066258;28;45309;-75
2022/12/14 12:43:24;;;;;;;6.55;3.53;;;15.70;39.20;;;;;;5066770;28;45406;-76
2022/12/14 12:45:52;;;;;;;4.65;3.75;;;15.80;39.30;;;;;;5066281;28;47082;-75
2022/12/14 12:48:22;;;;;;;4.00;3.50;;;15.80;39.20;;;;;;5085365;28;46144;-75
2022/12/14 12:50:50;;;;;;;5.90;3.17;;;15.90;39.20;;;;;;5086489;27;45255;-75
2022/12/14 12:53:19;;;;;;;3.78;3.40;;;15.90;39.10;;;;;;5086501;27;45195;-75
2022/12/14 12:55:47;;;;;;;4.15;3.78;;;15.90;39.00;;;;;;5086173;27;45475;-75
2022/12/14 12:58:19;;;;;;;5.05;3.28;;;16.00;39.00;;;;;;5086449;27;45336;-75
2022/12/14 13:00:50;;;;;;;4.78;3.25;;;16.00;38.90;;;;;;5086526;27;45698;-75
2022/12/14 13:03:20;;;;;;;4.55;3.45;;;16.00;39.50;;;;;;5086538;27;45321;-75
2022/12/14 13:05:46;;;;;;;4.68;3.53;;;16.00;38.90;;;;;;5088233;27;45716;-75
2022/12/14 13:08:17;;;;;;;4.22;3.50;;;16.00;38.90;;;;;;5089584;27;45376;-75
2022/12/14 13:10:45;;;;;;;3.47;3.17;;;16.00;38.90;;;;;;5089822;27;45199;-75